Time;durP1;ratioP1;P1;durP2;ratioP2;P2;SDS_P1;SDS_P2;PMS_P1;PMS_P2;Temp;Humidity;BMP_temperature;BMP_pressure;BME280_temperature;BME280_humidity;BME280_pressure;Samples;Min_cycle;Max_cycle;Signal;HPM_P1;HPM_P2
2021/03/09 00:01:27;;;;;;;2.77;1.40;;;;;;;-1.29;58.23;99274.06;1719165;82;21118;-60
2021/03/09 00:03:55;;;;;;;4.75;1.62;;;;;;;-1.29;58.27;99277.98;1715371;82;21159;-59
2021/03/09 00:06:23;;;;;;;5.25;2.30;;;;;;;-1.32;58.00;99283.86;1719127;82;21036;-60
2021/03/09 00:08:50;;;;;;;2.05;1.27;;;;;;;-1.34;57.88;99276.15;1715364;82;21064;-58
2021/03/09 00:11:18;;;;;;;3.35;1.82;;;;;;;-1.35;57.80;99277.07;1721195;82;21397;-59
2021/03/09 00:13:45;;;;;;;5.17;2.77;;;;;;;-1.35;57.60;99279.69;1720901;82;21123;-60
2021/03/09 00:16:13;;;;;;;2.90;2.35;;;;;;;-1.34;57.68;99269.63;1705730;84;21093;-60
2021/03/09 00:18:41;;;;;;;3.17;2.10;;;;;;;-1.33;57.80;99272.58;1736324;82;21065;-61
2021/03/09 00:21:08;;;;;;;3.05;1.95;;;;;;;-1.33;58.07;99266.55;1702779;83;21172;-60
2021/03/09 00:23:36;;;;;;;3.15;2.45;;;;;;;-1.34;57.97;99269.63;1736291;82;21346;-60
2021/03/09 00:26:04;;;;;;;9.85;3.12;;;;;;;-1.39;57.92;99273.01;1687111;84;21237;-60
2021/03/09 00:28:31;;;;;;;5.20;2.40;;;;;;;-1.38;58.04;99272.52;1686695;84;21084;-60
2021/03/09 00:30:59;;;;;;;5.30;2.80;;;;;;;-1.36;58.17;99278.03;1734417;82;21128;-60
2021/03/09 00:33:26;;;;;;;4.40;3.30;;;;;;;-1.35;57.83;99273.16;1741169;82;20981;-60
2021/03/09 00:35:54;;;;;;;8.08;5.97;;;;;;;-1.40;57.66;99271.32;1735486;82;21417;-60
2021/03/09 00:38:22;;;;;;;7.08;5.70;;;;;;;-1.41;57.58;99266.22;1717298;83;21092;-60
2021/03/09 00:40:51;;;;;;;7.40;5.97;;;;;;;-1.41;57.55;99276.66;1697407;83;21080;-60
2021/03/09 00:43:18;;;;;;;6.25;4.80;;;;;;;-1.40;57.59;99270.48;1705605;83;21028;-60
2021/03/09 00:45:46;;;;;;;6.55;4.35;;;;;;;-1.38;57.50;99268.13;1697269;83;21152;-60
2021/03/09 00:48:14;;;;;;;6.85;5.65;;;;;;;-1.38;57.40;99268.59;1707838;83;21368;-60
2021/03/09 00:50:41;;;;;;;8.50;6.05;;;;;;;-1.38;57.36;99271.20;1700392;83;21143;-60
2021/03/09 00:53:08;;;;;;;8.00;5.05;;;;;;;-1.35;57.16;99271.02;1697396;83;21150;-59
2021/03/09 00:55:36;;;;;;;6.37;5.10;;;;;;;-1.33;57.39;99263.94;1710456;83;21219;-59
2021/03/09 00:58:04;;;;;;;5.83;4.72;;;;;;;-1.30;57.54;99275.00;1714305;83;21573;-60
2021/03/09 01:00:32;;;;;;;5.62;4.10;;;;;;;-1.27;57.56;99277.87;1681849;84;21236;-59
2021/03/09 01:02:59;;;;;;;5.05;3.92;;;;;;;-1.26;57.28;99279.09;1699515;84;21558;-59
2021/03/09 01:05:27;;;;;;;7.25;3.20;;;;;;;-1.23;57.02;99274.60;1696609;84;21152;-60
2021/03/09 01:07:54;;;;;;;5.05;3.35;;;;;;;-1.20;56.95;99275.70;1698159;84;21181;-60
2021/03/09 01:10:22;;;;;;;3.95;3.25;;;;;;;-1.19;56.92;99274.75;1680165;84;21164;-59
2021/03/09 01:12:49;;;;;;;6.55;3.20;;;;;;;-1.20;56.95;99273.09;1698258;84;21398;-60
2021/03/09 01:15:17;;;;;;;3.10;2.80;;;;;;;-1.20;56.55;99274.41;1700803;83;21135;-59
2021/03/09 01:17:44;;;;;;;3.70;2.42;;;;;;;-1.22;56.19;99269.27;1696939;84;21586;-59
2021/03/09 01:20:13;;;;;;;3.02;2.70;;;;;;;-1.27;56.25;99270.04;1692893;84;21520;-59
2021/03/09 01:22:41;;;;;;;4.90;2.52;;;;;;;-1.27;56.40;99267.43;1700950;84;21143;-59
2021/03/09 01:25:10;;;;;;;2.55;1.47;;;;;;;-1.30;56.60;99267.16;1692180;84;21044;-59
2021/03/09 01:27:38;;;;;;;2.42;1.15;;;;;;;-1.32;56.74;99265.59;1672225;84;21641;-60
2021/03/09 01:30:07;;;;;;;1.40;1.17;;;;;;;-1.32;56.49;99272.13;1678956;84;21062;-60
2021/03/09 01:32:36;;;;;;;3.20;0.98;;;;;;;-1.32;56.33;99265.59;1678029;83;21264;-60
2021/03/09 01:35:05;;;;;;;3.05;0.90;;;;;;;-1.31;55.91;99268.13;1676279;84;21081;-59
2021/03/09 01:37:32;;;;;;;2.30;0.93;;;;;;;-1.31;55.76;99273.34;1671434;84;22315;-59
2021/03/09 01:40:00;;;;;;;1.57;0.85;;;;;;;-1.33;55.74;99266.06;1677667;84;21092;-59
2021/03/09 01:42:28;;;;;;;1.92;0.82;;;;;;;-1.34;55.72;99274.00;1679794;84;21074;-59
2021/03/09 01:44:56;;;;;;;0.80;0.70;;;;;;;-1.33;55.59;99271.77;1676160;84;21201;-59
2021/03/09 01:47:23;;;;;;;1.50;0.88;;;;;;;-1.38;55.51;99271.20;1679823;84;21131;-60
2021/03/09 01:49:51;;;;;;;0.95;0.80;;;;;;;-1.43;55.76;99266.76;1678006;84;21398;-59
2021/03/09 01:52:18;;;;;;;1.37;0.85;;;;;;;-1.46;55.91;99262.58;1678597;84;21055;-60
2021/03/09 01:54:46;;;;;;;0.90;0.70;;;;;;;-1.46;55.81;99265.69;1676859;83;21142;-60
2021/03/09 01:57:13;;;;;;;0.98;0.80;;;;;;;-1.53;55.78;99257.41;1676535;84;21144;-60
2021/03/09 01:59:42;;;;;;;0.90;0.62;;;;;;;-1.54;56.08;99270.06;1681029;84;21145;-60
2021/03/09 02:02:10;;;;;;;1.95;1.40;;;;;;;-1.52;56.54;99268.22;1658782;85;21236;-60
2021/03/09 02:04:38;;;;;;;2.37;1.50;;;;;;;-1.49;56.31;99270.63;1679775;84;21108;-60
2021/03/09 02:07:05;;;;;;;1.50;1.30;;;;;;;-1.47;55.83;99267.91;1678051;84;21065;-60
2021/03/09 02:09:34;;;;;;;1.90;1.37;;;;;;;-1.47;55.77;99267.45;1693942;84;21068;-60
2021/03/09 02:12:14;;;;;;;1.98;1.17;;;;;;;-1.45;55.74;99266.88;1676212;84;21109;-62
2021/03/09 02:15:08;;;;;;;0.98;0.88;;;;;;;-1.44;55.53;99268.56;1693015;84;21229;-60
2021/03/09 02:17:59;;;;;;;3.08;1.30;;;;;;;-1.46;55.26;99266.98;1691268;84;21163;-61
2021/03/09 02:20:47;;;;;;;1.35;0.90;;;;;;;-1.51;55.17;99268.57;1661001;84;21199;-59
2021/03/09 02:23:40;;;;;;;1.27;1.15;;;;;;;-1.55;55.16;99263.20;1695498;83;21184;-59
2021/03/09 02:26:32;;;;;;;1.17;0.90;;;;;;;-1.52;55.19;99266.08;1695867;84;21231;-59
2021/03/09 02:29:32;;;;;;;1.45;0.90;;;;;;;-1.54;55.06;99270.06;1697555;84;21021;-59
2021/03/09 02:31:59;;;;;;;2.52;1.27;;;;;;;-1.54;54.95;99273.98;1700146;84;21131;-61
2021/03/09 02:34:37;;;;;;;1.77;1.10;;;;;;;-1.57;54.95;99285.10;1700151;84;21010;-60
2021/03/09 02:37:08;;;;;;;1.02;0.80;;;;;;;-1.57;55.20;99283.80;1654636;85;21151;-61
2021/03/09 02:39:36;;;;;;;1.25;1.00;;;;;;;-1.52;55.12;99287.78;1649969;85;21195;-60
2021/03/09 02:42:07;;;;;;;1.75;0.75;;;;;;;-1.50;54.99;99291.59;1687009;82;21612;-60
2021/03/09 02:44:34;;;;;;;0.65;0.60;;;;;;;-1.49;55.06;99294.58;1680955;84;21013;-60
2021/03/09 02:47:02;;;;;;;1.98;1.25;;;;;;;-1.54;55.27;99291.43;1689792;82;21116;-60
2021/03/09 02:49:33;;;;;;;3.30;1.20;;;;;;;-1.58;55.48;99294.70;1697510;82;21054;-60
2021/03/09 02:52:02;;;;;;;1.22;1.00;;;;;;;-1.59;55.61;99295.62;1698825;82;21057;-61
2021/03/09 02:54:30;;;;;;;2.12;1.35;;;;;;;-1.60;55.72;99299.18;1693674;82;21210;-61
2021/03/09 02:56:58;;;;;;;1.77;1.02;;;;;;;-1.60;55.88;99299.18;1681333;84;21091;-61
2021/03/09 02:59:25;;;;;;;1.67;0.90;;;;;;;-1.62;56.18;99296.30;1697839;82;21159;-61
2021/03/09 03:01:52;;;;;;;1.67;0.90;;;;;;;-1.67;56.41;99304.89;1681415;84;20957;-61
2021/03/09 03:04:22;;;;;;;1.15;0.95;;;;;;;-1.75;56.42;99301.47;1687448;82;21082;-60
2021/03/09 03:06:50;;;;;;;1.35;0.80;;;;;;;-1.77;56.59;99312.94;1685434;84;21365;-60
2021/03/09 03:09:19;;;;;;;2.83;0.90;;;;;;;-1.79;56.53;99314.32;1680716;85;21191;-59
2021/03/09 03:11:47;;;;;;;3.70;1.22;;;;;;;-1.78;56.59;99312.09;1666384;86;21038;-59
2021/03/09 03:14:17;;;;;;;1.90;1.15;;;;;;;-1.78;56.86;99324.30;1724267;82;21175;-60
2021/03/09 03:16:45;;;;;;;1.50;1.30;;;;;;;-1.77;56.78;99329.40;1733200;82;21147;-59
2021/03/09 03:19:14;;;;;;;2.27;1.20;;;;;;;-1.73;56.49;99328.75;1728305;82;21425;-59
2021/03/09 03:21:42;;;;;;;2.08;1.45;;;;;;;-1.71;56.33;99325.11;1733219;82;20977;-59
2021/03/09 03:24:10;;;;;;;2.12;1.45;;;;;;;-1.69;56.16;99332.36;1730153;82;21167;-59
2021/03/09 03:26:40;;;;;;;1.80;1.50;;;;;;;-1.68;55.91;99339.27;1733289;82;21115;-60
2021/03/09 03:29:09;;;;;;;2.45;1.30;;;;;;;-1.70;55.82;99339.84;1729491;82;21128;-59
2021/03/09 03:31:37;;;;;;;2.45;1.27;;;;;;;-1.72;55.82;99335.65;1695408;82;21377;-59
2021/03/09 03:34:05;;;;;;;2.42;1.70;;;;;;;-1.77;55.95;99331.20;1684180;84;21559;-59
2021/03/09 03:36:33;;;;;;;6.78;1.70;;;;;;;-1.83;56.23;99327.20;1688002;84;21630;-60
2021/03/09 03:39:01;;;;;;;2.55;1.37;;;;;;;-1.88;56.49;99329.27;1669639;84;21081;-60
2021/03/09 03:41:29;;;;;;;1.65;1.22;;;;;;;-1.88;56.45;99321.44;1684257;84;21161;-61
2021/03/09 03:43:56;;;;;;;1.77;1.12;;;;;;;-1.88;56.36;99327.95;1686060;84;21401;-60
2021/03/09 03:46:24;;;;;;;1.00;0.72;;;;;;;-1.92;56.21;99327.30;1669697;86;21143;-59
2021/03/09 03:48:52;;;;;;;1.87;0.80;;;;;;;-1.94;56.23;99336.15;1718362;82;21076;-59
2021/03/09 03:51:23;;;;;;;1.55;0.72;;;;;;;-1.96;56.22;99340.17;1714750;82;21135;-59
2021/03/09 03:54:24;;;;;;;1.40;0.98;;;;;;;-2.00;56.26;99336.06;1731552;82;21104;-59
2021/03/09 03:57:05;;;;;;;1.52;0.95;;;;;;;-2.04;56.64;99337.66;1714080;82;21207;-61
2021/03/09 03:59:36;;;;;;;1.50;0.72;;;;;;;-2.04;56.46;99335.89;1726066;82;21069;-60
2021/03/09 04:02:05;;;;;;;0.93;0.72;;;;;;;-2.02;56.23;99346.22;1709383;82;20955;-60
2021/03/09 04:04:35;;;;;;;1.12;0.60;;;;;;;-2.02;56.22;99342.30;1730411;82;21076;-60
2021/03/09 04:07:02;;;;;;;0.93;0.78;;;;;;;-2.05;56.32;99344.64;1710008;82;21511;-62
2021/03/09 04:09:29;;;;;;;1.60;0.88;;;;;;;-2.03;56.65;99354.95;1713717;82;21206;-59
2021/03/09 04:11:57;;;;;;;0.95;0.90;;;;;;;-2.06;56.74;99353.37;1709946;82;21068;-60
2021/03/09 04:14:24;;;;;;;0.80;0.70;;;;;;;-2.08;56.63;99356.55;1717303;82;21009;-60
2021/03/09 04:16:53;;;;;;;1.50;1.12;;;;;;;-2.10;56.58;99359.73;1732928;82;21025;-60
2021/03/09 04:19:22;;;;;;;3.10;1.85;;;;;;;-2.12;56.99;99364.20;1730632;82;21541;-60
2021/03/09 04:21:50;;;;;;;2.77;1.90;;;;;;;-2.14;57.03;99366.04;1731125;82;22545;-60
2021/03/09 04:24:17;;;;;;;7.53;2.08;;;;;;;-2.14;57.03;99371.25;1730181;82;21012;-60
2021/03/09 04:26:45;;;;;;;3.30;1.92;;;;;;;-2.12;57.31;99373.78;1711269;82;21063;-60
2021/03/09 04:29:13;;;;;;;5.22;2.50;;;;;;;-2.13;57.03;99376.01;1730035;82;22046;-60
2021/03/09 04:31:41;;;;;;;2.90;1.77;;;;;;;-2.16;57.16;99373.58;1731093;82;21128;-61
2021/03/09 04:34:10;;;;;;;2.77;2.00;;;;;;;-2.14;57.13;99373.86;1705473;83;21669;-59
2021/03/09 04:36:37;;;;;;;2.75;2.20;;;;;;;-2.12;56.97;99377.23;1716240;82;21587;-59
2021/03/09 04:39:06;;;;;;;2.87;2.40;;;;;;;-2.14;57.07;99375.16;1737463;81;21510;-59
2021/03/09 04:41:33;;;;;;;5.47;3.30;;;;;;;-2.17;57.12;99383.20;1720140;82;21573;-59
2021/03/09 04:44:01;;;;;;;13.32;4.05;;;;;;;-2.17;57.26;99388.87;1728736;82;21204;-60
2021/03/09 04:46:28;;;;;;;3.65;2.33;;;;;;;-2.14;57.54;99389.50;1705735;84;22302;-60
2021/03/09 04:48:56;;;;;;;2.90;1.60;;;;;;;-2.11;57.75;99389.81;1736468;82;21018;-59
2021/03/09 04:51:25;;;;;;;3.85;1.50;;;;;;;-2.04;57.64;99386.73;1727763;82;21144;-60
2021/03/09 04:53:52;;;;;;;1.52;0.98;;;;;;;-1.98;57.48;99388.09;1719608;81;21160;-60
2021/03/09 04:56:20;;;;;;;2.22;1.35;;;;;;;-1.94;57.33;99388.30;1732287;82;21191;-60
2021/03/09 04:58:47;;;;;;;2.10;0.93;;;;;;;-1.91;57.27;99398.08;1716070;82;21385;-60
2021/03/09 05:01:14;;;;;;;1.70;1.00;;;;;;;-1.89;57.12;99401.43;1716651;82;20993;-60
2021/03/09 05:03:42;;;;;;;2.55;1.10;;;;;;;-1.88;57.03;99403.58;1716822;82;21052;-60
2021/03/09 05:06:10;;;;;;;1.50;0.80;;;;;;;-1.86;57.09;99399.09;1732945;82;21136;-60
2021/03/09 05:08:37;;;;;;;0.65;0.65;;;;;;;-1.84;57.18;99405.05;1716024;82;21151;-60
2021/03/09 05:11:05;;;;;;;1.17;1.00;;;;;;;-1.83;57.25;99399.37;1738635;82;21448;-60
2021/03/09 05:13:34;;;;;;;1.25;0.82;;;;;;;-1.79;57.25;99408.20;1704193;84;21575;-59
2021/03/09 05:16:02;;;;;;;7.25;3.50;;;;;;;-1.78;57.27;99412.97;1735917;82;20941;-60
2021/03/09 05:18:30;;;;;;;5.20;1.85;;;;;;;-1.77;57.21;99412.86;1737392;82;20915;-60
2021/03/09 05:20:59;;;;;;;1.80;1.20;;;;;;;-1.71;57.24;99416.86;1726343;82;21124;-60
2021/03/09 05:23:29;;;;;;;2.65;1.52;;;;;;;-1.68;57.16;99414.91;1731462;82;21216;-61
2021/03/09 05:25:58;;;;;;;2.45;1.50;;;;;;;-1.69;57.12;99419.74;1725060;82;21005;-60
2021/03/09 05:28:25;;;;;;;3.85;2.00;;;;;;;-1.72;57.17;99425.14;1729984;82;20976;-59
2021/03/09 05:30:52;;;;;;;3.90;2.58;;;;;;;-1.75;57.39;99427.97;1722205;82;21167;-60
2021/03/09 05:33:20;;;;;;;1.72;1.62;;;;;;;-1.78;57.67;99430.76;1708077;82;21191;-61
2021/03/09 05:35:48;;;;;;;5.30;1.57;;;;;;;-1.76;57.96;99433.26;1733989;81;21386;-61
2021/03/09 05:38:15;;;;;;;3.50;2.67;;;;;;;-1.71;58.07;99432.51;1722845;82;21143;-65
2021/03/09 05:40:43;;;;;;;5.78;3.80;;;;;;;-1.70;57.92;99434.20;1676795;84;21173;-63
2021/03/09 05:43:11;;;;;;;6.90;1.50;;;;;;;-1.68;57.86;99434.93;1718599;82;21140;-61
2021/03/09 05:45:38;;;;;;;4.65;1.62;;;;;;;-1.67;57.68;99443.14;1677748;84;21008;-60
2021/03/09 05:48:08;;;;;;;5.25;1.52;;;;;;;-1.66;57.52;99440.89;1664763;84;21375;-60
2021/03/09 05:50:35;;;;;;;5.87;2.02;;;;;;;-1.58;57.44;99448.62;1717630;82;21052;-61
2021/03/09 05:53:03;;;;;;;5.35;1.52;;;;;;;-1.44;57.52;99452.52;1712899;82;21059;-61
2021/03/09 05:55:30;;;;;;;2.72;1.57;;;;;;;-1.16;56.97;99459.91;1714867;82;21195;-61
2021/03/09 05:57:58;;;;;;;2.35;1.80;;;;;;;-0.93;56.38;99454.05;1714539;82;21139;-62
2021/03/09 06:00:25;;;;;;;2.98;2.30;;;;;;;-0.78;55.77;99454.34;1713146;82;21340;-60
2021/03/09 06:02:54;;;;;;;3.85;2.37;;;;;;;-0.71;54.98;99456.48;1728590;82;21091;-60
2021/03/09 06:05:21;;;;;;;4.37;2.37;;;;;;;-0.74;54.61;99458.45;1689677;84;21076;-61
2021/03/09 06:07:54;;;;;;;3.72;2.12;;;;;;;-0.76;54.45;99464.25;1705344;82;21368;-62
2021/03/09 06:10:22;;;;;;;2.85;1.87;;;;;;;-0.75;54.32;99468.52;1721957;82;21159;-62
2021/03/09 06:12:50;;;;;;;2.77;1.70;;;;;;;-0.78;54.27;99466.10;1722753;82;22277;-61
2021/03/09 06:15:18;;;;;;;4.15;1.30;;;;;;;-0.76;54.25;99476.01;1724418;82;21139;-62
2021/03/09 06:17:56;;;;;;;3.22;1.60;;;;;;;-0.76;53.96;99476.86;1729218;81;21175;-62
2021/03/09 06:20:30;;;;;;;3.22;1.67;;;;;;;-0.81;54.01;99485.92;1729186;82;21409;-61
2021/03/09 06:22:59;;;;;;;3.22;1.37;;;;;;;-0.80;53.76;99487.11;1730305;82;21156;-60
2021/03/09 06:25:37;;;;;;;3.27;1.52;;;;;;;-0.81;53.65;99496.37;1728508;81;21040;-62
2021/03/09 06:28:08;;;;;;;7.25;1.70;;;;;;;-0.81;53.62;99503.71;1727153;81;21566;-60
2021/03/09 06:30:38;;;;;;;3.12;1.60;;;;;;;-0.74;54.01;99508.94;1727406;81;21195;-61
2021/03/09 06:33:05;;;;;;;3.80;1.47;;;;;;;-0.53;54.17;99512.39;1730263;82;21044;-61
2021/03/09 06:35:41;;;;;;;3.62;1.55;;;;;;;-0.20;53.71;99509.70;1727068;82;21108;-60
2021/03/09 06:38:28;;;;;;;3.45;1.50;;;;;;;0.17;52.94;99510.68;1726275;82;21368;-61
2021/03/09 06:41:17;;;;;;;6.85;1.50;;;;;;;0.65;51.58;99513.48;1823154;78;28119;-60
2021/03/09 06:43:47;;;;;;;2.02;1.42;;;;;;;0.90;51.06;99516.04;1793090;79;20954;-61
2021/03/09 06:46:17;;;;;;;3.02;1.77;;;;;;;1.28;49.94;99510.69;1797729;77;21350;-61
2021/03/09 06:48:52;;;;;;;3.87;1.90;;;;;;;1.65;49.08;99507.02;1739056;82;21056;-62
2021/03/09 06:51:34;;;;;;;2.27;1.47;;;;;;;2.04;47.79;99518.94;1730744;82;21021;-60
2021/03/09 06:54:08;;;;;;;2.27;1.60;;;;;;;2.25;46.94;99518.16;1726719;82;21092;-61
2021/03/09 06:56:42;;;;;;;3.37;1.07;;;;;;;2.66;46.39;99519.41;1722893;82;20982;-60
2021/03/09 06:59:24;;;;;;;2.33;1.40;;;;;;;3.21;44.32;99525.08;1739719;81;21416;-61
2021/03/09 07:02:08;;;;;;;2.40;1.57;;;;;;;3.68;43.64;99518.09;1743529;80;20965;-61
2021/03/09 07:04:49;;;;;;;2.02;0.80;;;;;;;4.08;43.04;99519.11;1727990;82;21004;-62
2021/03/09 07:07:29;;;;;;;2.77;1.47;;;;;;;4.60;40.65;99520.80;1731090;82;20985;-62
2021/03/09 07:10:12;;;;;;;1.07;0.98;;;;;;;4.95;39.25;99519.07;1739714;81;21032;-60
2021/03/09 07:12:42;;;;;;;5.40;1.40;;;;;;;4.98;39.06;99523.57;1744009;81;22244;-61
2021/03/09 07:15:13;;;;;;;1.45;1.17;;;;;;;5.06;38.30;99522.09;1724892;82;21072;-62
2021/03/09 07:17:40;;;;;;;2.50;1.75;;;;;;;5.20;38.48;99519.89;1740903;80;21019;-60
2021/03/09 07:20:13;;;;;;;1.87;1.20;;;;;;;5.35;37.78;99529.56;1750731;81;21016;-61
2021/03/09 07:22:43;;;;;;;1.62;1.20;;;;;;;5.30;37.69;99527.82;1751621;81;21067;-60
2021/03/09 07:25:17;;;;;;;2.70;1.15;;;;;;;5.08;38.34;99524.94;1710874;82;21378;-61
2021/03/09 07:28:00;;;;;;;1.55;1.27;;;;;;;5.04;38.01;99524.00;1743565;82;21049;-60
2021/03/09 07:30:36;;;;;;;2.85;1.40;;;;;;;4.82;38.00;99520.59;1731577;82;21139;-61
2021/03/09 07:33:03;;;;;;;2.35;1.30;;;;;;;4.57;37.93;99523.69;1732446;82;20930;-62
2021/03/09 07:35:31;;;;;;;1.67;1.30;;;;;;;4.27;37.63;99527.62;1736551;81;21091;-60
2021/03/09 07:38:00;;;;;;;2.67;1.85;;;;;;;4.17;37.68;99526.73;1755106;81;21364;-60
2021/03/09 07:40:31;;;;;;;3.15;1.17;;;;;;;4.13;37.45;99522.66;1744565;81;21166;-61
2021/03/09 07:42:59;;;;;;;2.33;2.08;;;;;;;4.16;37.36;99522.41;1719162;82;21710;-61
2021/03/09 07:45:33;;;;;;;1.65;1.45;;;;;;;4.26;36.99;99521.51;1772393;79;21228;-61
2021/03/09 07:48:17;;;;;;;1.25;0.93;;;;;;;4.33;36.62;99522.65;1775033;78;21120;-60
2021/03/09 07:50:46;;;;;;;3.85;2.17;;;;;;;4.41;36.22;99523.83;1773794;79;21357;-61
2021/03/09 07:53:20;;;;;;;5.67;3.35;;;;;;;4.56;36.83;99522.03;1786414;79;20951;-60
2021/03/09 07:56:12;;;;;;;3.17;2.05;;;;;;;4.77;36.18;99516.20;1780125;79;21017;-61
2021/03/09 07:58:39;;;;;;;3.35;1.87;;;;;;;4.68;36.00;99519.66;1793236;79;21010;-62
2021/03/09 08:01:07;;;;;;;2.85;1.37;;;;;;;4.49;36.02;99531.88;1772499;79;21425;-62
2021/03/09 08:03:41;;;;;;;2.05;1.05;;;;;;;4.34;36.21;99527.45;1790868;79;21339;-62
2021/03/09 08:06:17;;;;;;;3.58;1.42;;;;;;;4.21;36.56;99528.97;1782820;79;21586;-62
2021/03/09 08:08:51;;;;;;;1.77;1.20;;;;;;;4.15;36.22;99533.89;1783652;79;21624;-61
2021/03/09 08:11:27;;;;;;;6.45;1.17;;;;;;;3.91;36.25;99528.87;1779118;79;21554;-61
2021/03/09 08:14:08;;;;;;;1.62;1.42;;;;;;;3.63;36.79;99531.63;1777467;79;21561;-61
2021/03/09 08:16:44;;;;;;;4.00;1.17;;;;;;;3.39;37.25;99534.93;1789689;79;21332;-62
2021/03/09 08:19:30;;;;;;;1.70;1.20;;;;;;;3.21;37.53;99538.22;1775791;79;21168;-60
2021/03/09 08:22:00;;;;;;;3.98;1.37;;;;;;;3.07;37.73;99535.37;1786341;79;20990;-61
2021/03/09 08:24:45;;;;;;;2.40;1.32;;;;;;;3.00;37.91;99532.38;1773726;79;21120;-62
2021/03/09 08:27:38;;;;;;;3.00;1.47;;;;;;;2.91;37.54;99527.86;1783727;79;20907;-60
2021/03/09 08:30:27;;;;;;;2.12;1.35;;;;;;;2.83;38.09;99535.98;1783271;79;21204;-62
2021/03/09 08:33:26;;;;;;;1.25;1.07;;;;;;;2.87;38.25;99537.40;1780276;79;21024;-59
2021/03/09 08:35:55;;;;;;;2.20;1.17;;;;;;;2.87;38.06;99538.71;1779046;79;21026;-59
2021/03/09 08:38:24;;;;;;;2.17;1.10;;;;;;;2.69;37.99;99546.72;1780055;79;21022;-61
2021/03/09 08:41:06;;;;;;;1.85;1.10;;;;;;;2.51;38.36;99548.98;1784438;77;21159;-61
2021/03/09 08:43:34;;;;;;;4.75;1.50;;;;;;;2.28;38.59;99547.28;1787215;79;22345;-63
2021/03/09 08:46:03;;;;;;;4.75;1.20;;;;;;;1.96;39.03;99553.63;1791228;79;21120;-63
2021/03/09 08:48:51;;;;;;;3.25;1.45;;;;;;;1.66;39.44;99551.51;1784725;79;20958;-60
2021/03/09 08:51:42;;;;;;;1.52;1.12;;;;;;;1.49;40.02;99555.81;1784886;79;21577;-61
2021/03/09 08:54:26;;;;;;;5.03;1.30;;;;;;;1.37;40.23;99561.12;1785975;79;21100;-63
2021/03/09 08:56:54;;;;;;;3.22;2.00;;;;;;;1.15;40.58;99560.03;1773329;79;21191;-61
2021/03/09 08:59:28;;;;;;;6.60;2.72;;;;;;;0.92;40.95;99556.05;1788233;79;21144;-63
2021/03/09 09:02:08;;;;;;;4.05;2.90;;;;;;;0.76;40.89;99559.37;1787548;79;21183;-60
2021/03/09 09:04:37;;;;;;;2.50;2.02;;;;;;;0.63;41.18;99560.23;1785789;79;21104;-65
2021/03/09 09:07:37;;;;;;;2.22;2.02;;;;;;;0.56;41.04;99555.53;1797141;79;21156;-62
2021/03/09 09:10:13;;;;;;;7.87;7.08;;;;;;;0.55;40.97;99550.76;1778890;79;22634;-62
2021/03/09 09:12:45;;;;;;;11.18;6.90;;;;;;;0.49;41.15;99554.28;1776574;79;21681;-61
2021/03/09 09:15:17;;;;;;;3.15;2.65;;;;;;;0.45;41.62;99558.87;1777759;79;21029;-62
2021/03/09 09:17:55;;;;;;;1.62;1.30;;;;;;;0.50;41.31;99557.25;1773663;79;21128;-63
2021/03/09 09:20:34;;;;;;;1.25;1.15;;;;;;;0.50;41.18;99559.87;1794575;79;21554;-61
2021/03/09 09:23:14;;;;;;;2.20;1.60;;;;;;;0.52;41.14;99563.23;1793628;79;21205;-59
2021/03/09 09:25:44;;;;;;;4.53;2.10;;;;;;;0.55;41.22;99561.69;1800072;79;21112;-61
2021/03/09 09:28:29;;;;;;;3.33;1.80;;;;;;;0.69;41.44;99565.98;1802258;79;21535;-63
2021/03/09 09:30:58;;;;;;;5.08;1.70;;;;;;;0.81;41.22;99569.08;1783906;79;21116;-62
2021/03/09 09:33:29;;;;;;;2.95;1.72;;;;;;;0.84;41.51;99569.69;1787644;79;21100;-61
2021/03/09 09:35:58;;;;;;;1.85;1.60;;;;;;;0.92;41.47;99567.37;1774097;79;21374;-60
2021/03/09 09:38:26;;;;;;;5.08;2.92;;;;;;;0.98;41.27;99575.27;1774665;79;21128;-61
2021/03/09 09:40:57;;;;;;;3.62;2.35;;;;;;;0.98;40.74;99572.19;1788213;78;21167;-65
2021/03/09 09:43:27;;;;;;;8.95;3.58;;;;;;;0.92;40.49;99573.92;1770646;78;20954;-61
2021/03/09 09:46:05;;;;;;;4.90;3.40;;;;;;;0.86;40.38;99580.08;1774597;79;21858;-63
2021/03/09 09:48:38;;;;;;;6.17;2.98;;;;;;;0.83;40.29;99578.97;1765568;78;21513;-63
2021/03/09 09:51:18;;;;;;;6.55;2.50;;;;;;;0.80;40.22;99580.49;1768815;79;21017;-61
2021/03/09 09:53:48;;;;;;;6.37;3.08;;;;;;;0.73;40.26;99578.75;1768375;79;21041;-62
2021/03/09 09:56:22;;;;;;;2.95;2.37;;;;;;;0.66;40.77;99587.14;1767982;79;21626;-63
2021/03/09 09:58:53;;;;;;;6.05;2.45;;;;;;;0.71;41.18;99594.20;1765391;79;21025;-61
2021/03/09 10:01:24;;;;;;;2.55;1.70;;;;;;;0.82;41.29;99592.53;1765446;79;21199;-61
2021/03/09 10:03:59;;;;;;;3.72;1.70;;;;;;;0.84;41.00;99591.95;1762954;78;20958;-60
2021/03/09 10:06:41;;;;;;;2.70;1.90;;;;;;;0.80;41.23;99591.81;1778638;79;21049;-62
2021/03/09 10:09:18;;;;;;;5.67;1.60;;;;;;;0.82;41.55;99593.84;1774462;79;21049;-63
2021/03/09 10:11:54;;;;;;;2.37;1.70;;;;;;;0.86;41.66;99592.67;1767822;79;21140;-60
2021/03/09 10:14:30;;;;;;;5.90;1.52;;;;;;;0.86;41.84;99592.67;1767322;79;21198;-60
2021/03/09 10:16:57;;;;;;;2.33;1.42;;;;;;;0.87;41.98;99597.45;1768517;79;21010;-62
2021/03/09 10:19:35;;;;;;;8.38;2.05;;;;;;;0.87;42.20;99590.43;1767809;78;21180;-60
2021/03/09 10:22:03;;;;;;;3.85;2.12;;;;;;;0.96;42.31;99592.42;1770050;79;21029;-62
2021/03/09 10:24:32;;;;;;;2.12;1.67;;;;;;;1.04;42.37;99595.81;1764292;79;21156;-62
2021/03/09 10:27:00;;;;;;;2.83;1.72;;;;;;;1.04;42.47;99599.25;1765198;79;21358;-62
2021/03/09 10:29:32;;;;;;;2.70;1.60;;;;;;;1.07;42.65;99592.98;1770582;79;21081;-61
2021/03/09 10:32:04;;;;;;;2.08;1.62;;;;;;;1.08;42.79;99592.86;1770757;79;21007;-63
2021/03/09 10:34:37;;;;;;;1.85;1.25;;;;;;;1.12;42.84;99596.12;1787562;79;21555;-61
2021/03/09 10:37:06;;;;;;;6.20;1.95;;;;;;;1.18;42.84;99599.59;1775189;79;20966;-63
2021/03/09 10:39:53;;;;;;;2.75;1.80;;;;;;;1.17;42.74;99597.44;1770274;79;21368;-62
2021/03/09 10:42:40;;;;;;;2.02;1.57;;;;;;;1.13;42.90;99603.02;1796052;77;21124;-62
2021/03/09 10:45:19;;;;;;;;;;;;;;;1.04;43.12;99602.36;1762159;79;21128;-62
2021/03/09 10:47:54;;;;;;;4.80;1.90;;;;;;;1.03;43.48;99605.92;1785638;79;20268;-61
2021/03/09 10:50:27;;;;;;;3.50;1.90;;;;;;;1.09;43.62;99605.03;1771635;79;21606;-64
2021/03/09 10:52:54;;;;;;;2.55;1.70;;;;;;;1.11;43.51;99602.29;1775821;79;22260;-61
2021/03/09 10:55:22;;;;;;;4.87;1.82;;;;;;;0.99;43.49;99601.85;1774843;79;21203;-63
2021/03/09 10:57:52;;;;;;;4.33;1.50;;;;;;;0.82;43.91;99605.63;1790469;79;21045;-64
2021/03/09 11:00:23;;;;;;;1.50;1.37;;;;;;;0.72;43.90;99605.91;1782766;79;20938;-62
2021/03/09 11:02:50;;;;;;;3.10;1.52;;;;;;;0.74;43.89;99601.86;1780927;79;21194;-61
2021/03/09 11:05:18;;;;;;;3.80;1.80;;;;;;;0.78;43.95;99600.25;1774923;79;21343;-64
2021/03/09 11:07:46;;;;;;;2.47;1.75;;;;;;;0.83;43.88;99601.23;1774909;79;21040;-63
2021/03/09 11:10:16;;;;;;;3.80;1.60;;;;;;;0.88;43.68;99606.99;1774961;79;21164;-62
2021/03/09 11:12:44;;;;;;;3.30;1.55;;;;;;;0.87;43.60;99606.61;1798384;78;21702;-64
2021/03/09 11:15:13;;;;;;;1.72;1.30;;;;;;;0.88;43.55;99609.14;1775244;79;21073;-63
2021/03/09 11:17:41;;;;;;;3.85;1.52;;;;;;;0.93;43.56;99616.21;1788464;78;21524;-65
2021/03/09 11:20:10;;;;;;;7.58;1.77;;;;;;;1.01;43.82;99608.66;1774548;79;21054;-66
2021/03/09 11:22:37;;;;;;;3.02;1.70;;;;;;;1.03;43.90;99613.31;1775104;79;21126;-61
2021/03/09 11:25:09;;;;;;;1.55;1.20;;;;;;;1.02;43.81;99609.47;1735445;81;21631;-63
2021/03/09 11:27:36;;;;;;;1.70;1.60;;;;;;;0.89;43.96;99609.48;1771737;79;21674;-63
2021/03/09 11:30:06;;;;;;;5.92;2.72;;;;;;;0.73;44.21;99611.48;1771762;79;21201;-64
2021/03/09 11:32:33;;;;;;;5.20;2.85;;;;;;;0.71;44.37;99617.31;1794454;79;20940;-66
2021/03/09 11:35:01;;;;;;;5.08;3.22;;;;;;;0.74;44.36;99614.95;1776660;79;21504;-66
2021/03/09 11:37:29;;;;;;;10.25;2.42;;;;;;;0.84;44.24;99617.30;1745736;79;21205;-65
2021/03/09 11:39:57;;;;;;;3.05;2.20;;;;;;;0.90;44.02;99608.56;1741420;81;21183;-66
2021/03/09 11:42:24;;;;;;;5.87;2.17;;;;;;;0.99;43.87;99606.59;1743902;81;21379;-65
2021/03/09 11:44:52;;;;;;;2.05;1.55;;;;;;;1.07;43.23;99606.08;1750174;81;21131;-65
2021/03/09 11:47:19;;;;;;;2.90;1.80;;;;;;;1.06;42.91;99608.33;1755645;81;21223;-65
2021/03/09 11:49:47;;;;;;;1.60;1.40;;;;;;;1.06;42.20;99600.47;1752564;81;21111;-64
2021/03/09 11:52:15;;;;;;;3.52;2.50;;;;;;;1.00;41.91;99606.13;1733555;81;21199;-62
2021/03/09 11:54:42;;;;;;;5.03;2.10;;;;;;;0.89;41.71;99597.70;1734252;81;21313;-63
2021/03/09 11:57:10;;;;;;;4.37;2.75;;;;;;;0.83;41.57;99594.22;1730043;81;21218;-63